Belgrade Nikola Tesla, Serbia

8:41 AM CEST on September 02, 2014 (GMT +0200)
Zemun | Change Station
CLOSE
Current Station
Personal Weather Station
Location: Belgrade,
Elevation: 302 ft
Nearby Weather Stations

Elev 302 ft 44.86 °N, 20.39 °E | Updated 1 minute ago

Clear
Clear
64.4 °F
Feels Like 64.4 °F
N
2.8
Wind Variable Wind from NNE
Gusts 5.7 mph

Today
High -- | Low -- °F
--% Chance of Precip.
Yesterday
High -- | Low -- °F
Precip. -- in
6:01 AM 7:14 PM
Waxing Crescent, 48% visible
Pressure 29.80 in
Visibility -9999.0 miles
Clouds
Dew Point 59 °F
Humidity 83%
Rainfall 0.00 in
Snow Depth Not available.
UV Not available.
Pollen Not available.
Air Quality Not available.
Flu Activity Not available.
METAR LYBE 020630Z 36003KT CAVOK 18/16 Q1009 NOSIG

More Conditions Fewer Conditions

Pressure 29.80 in
Visibility -9999.0 miles
Clouds
Dew Point 59 °F
Humidity 83%
Rainfall 0.00 in
Snow Depth Not available.
UV Not available.
Pollen Not available.
Air Quality Not available.
Flu Activity Not available.
METAR LYBE 020630Z 36003KT CAVOK 18/16 Q1009 NOSIG

More Conditions Fewer Conditions

10-Day Weather Forecast

Almanac

Astronomy

Sep. 02, 2014 Rise Set
Actual Time 6:01 AM CEST 7:14 PM CEST
Civil Twilight 5:31 AM CEST 7:44 PM CEST
Nautical Twilight 4:55 AM CEST 8:20 PM CEST
Astronomical Twilight 4:17 AM CEST 8:58 PM CEST
Moon 1:46 PM CEST 11:33 PM CEST
Length of Visible Light 14h 12m
Length of Day
13h 12m
Tomorrow will be 3m 1s shorter.
Waxing Crescent, 48% of the Moon is Illuminated
Today
Waxing Crescent
Sep 2
First Quarter
Sep 8
Full
Sep 15
Last Quarter
Sep 24
New

Community

WunderPhotos

Upload Photos

1,749,589 photos uploaded!

WunderBlogs® & News

Nearby

Snow Depth

Not available.

Earthquake Activity

City Distance Mag. Time & Date
No recent earthquake activity has been reported nearby.
Minimum magnitude displayed is 2.5.

Coastal Water Temperatures

Place Temperature
No Stations Reporting

Nearby Weather Stations